Белгород

СКИДКИ НА СМАРТФОНЫ!

Карта отелей и гостиниц, располагающихся рядом с аэропортом Белгород :

Белгород Белгородская область 50° 38' 37.7412" N, 36° 35' 24.36" E
Код аэродрома ИКАО
UUOB
Код аэродрома RU
УУОБ
Координаты
N50.64382° E036.59010°
Превышение над уровнем моря
224
Основная полоса
11L/29R
Курс магнитный
109/289
Длина основной ВПП
2420
Ширина основной ВПП
60
Покрытие основной ВПП
Нетвёрдое (грунт)
Освещение ВПП
Нет
Тип: 
Аэродром
Класс аэродрома: 
Международный
Принадлежность: 
ГА
Статус: 
Действующий
Страна: 
Россия
Регион: 
Белгородская область
Дополнительная информация: 
ДПРМ:718-"AN/BX"; БПРМ:350-"A/B". Нкр.=(500)м.
Погода: 

Авиационная погода в Белгороде

Регион: 
Погода METAR: 
UUOB 081500Z 13004MPS 2200 -SN BR OVC005 M03/M04 Q1021 R11/490531 NOSIG
Время наблюдения
2022-12-08T15:00:00Z
Температура C
-3.0
Точка росы
-4.0
Направление ветра
130
Скорость ветра (узлы)
8
Метео видимость
1.37
Облачность
OVC
Нижняя граница облачности (футы)
500
Явления погоды
-SN BR
Условия полета
IFR
Аэропорт подробнее: 
OVC – сплошная облачность;
-SN – слабый снег; BR – дымка (видимость от 1 до 9 км);
Прогноз TAF: 

Скидки на навигаторы!

Найти трансфер

С помощью этой формы Вы можете найти трансфер из аэропорта Белгород в город, аэропорт или вокзал:

Погода в аэропортах:

Авиационная погода в Лаппеэнранта

Регион: 
Погода METAR: 
EFLP 081450Z AUTO 10007KT 080V140 5000 -SN OVC007 M05/M06 Q1001
Время наблюдения
2022-12-08T14:50:00Z
Температура C
-5.0
Точка росы
-6.0
Направление ветра
100
Скорость ветра (узлы)
7
Метео видимость
3.11
Облачность
OVC
Нижняя граница облачности (футы)
700
Явления погоды
-SN
Условия полета
IFR
OVC – сплошная облачность;
-SN – слабый снег;

Авиационная погода в Кишинёве

Регион: 
Погода METAR: 
LUKK 081500Z 05004KT 5000 BR OVC004 04/04 Q1017 BECMG 2800 BR OVC003
Время наблюдения
2022-12-08T15:00:00Z
Температура C
4.0
Точка росы
4.0
Направление ветра
50
Скорость ветра (узлы)
4
Метео видимость
3.11
Облачность
OVC
Нижняя граница облачности (футы)
400
Явления погоды
BR
Условия полета
LIFR
OVC – сплошная облачность;
BR – дымка (видимость от 1 до 9 км);

Авиационная погода в Иркутске

Регион: 
Погода METAR: 
UIII 081500Z 31005MPS 5000 -SN SCT026 M10/M13 Q1029 R30/490145 NOSIG RMK QFE726/0969
Время наблюдения
2022-12-08T15:00:00Z
Температура C
-10.0
Точка росы
-13.0
Направление ветра
310
Скорость ветра (узлы)
10
Метео видимость
3.11
Облачность
SCT
Нижняя граница облачности (футы)
2600
Явления погоды
-SN
Условия полета
MVFR
Аэропорт подробнее: 
SCT – разбросанная отдельная облачность;
-SN – слабый снег;

Авиационная погода в Якутске

Регион: 
Погода METAR: 
UEEE 081500Z 18002MPS 1700 R23L/P2000D BR NSC M38/M41 Q1007 R23L/490150 NOSIG RMK QFE747
Время наблюдения
2022-12-08T15:00:00Z
Температура C
-38.0
Точка росы
-41.0
Направление ветра
180
Скорость ветра (узлы)
4
Метео видимость
1.06
Облачность
CLR
Нижняя граница облачности (футы)
Явления погоды
BR
Условия полета
IFR
Аэропорт подробнее: 
CLR — нет облаков ниже 3000 м
BR – дымка (видимость от 1 до 9 км);